F/V Adeline Stephen — FGUF — position and weather

sailwx.info

Track history (hours):
 
Tides and Currents Weather Stations Pressure Air Temp Water Temp Dewpoint Dewpoint Depression Visibility Wind Speed Wind Dir Waves Ship Positions

F/V Adeline Stephen

Last reported at 2014-Oct-20 21:08 UTC. Time now 2014-Oct-23 04:38 UTC.
Position N 47°44' W 003°22'.

Length 18 m.

Type: Fishing. MMSI: 228929000.

Date/timePositionNaut miles runAvg speedWind from/ knotsBaromVisibWave heightAir tempDewpointWater temp
2014-Oct-20 21:08N 47°44' W 003°22'0 0.0
2014-Oct-20 20:33N 47°44' W 003°22'2 2.3
2014-Oct-20 19:33N 47°42' W 003°23'18 9.2
2014-Oct-20 17:33N 47°39' W 003°50'9 8.8
2014-Oct-20 16:33N 47°39' W 004°03'21 0.6
2014-Oct-19 07:33N 47°40' W 003°32'8 7.9
2014-Oct-19 06:33N 47°44' W 003°22'  
2014-Oct-17 01:33N 47°44' W 003°22'0 0.0
2014-Oct-17 00:33N 47°44' W 003°22'0 0.0
2014-Oct-16 23:33N 47°44' W 003°22'5 4.9
2014-Oct-16 22:33N 47°40' W 003°26'1 0.8
2014-Oct-16 21:33N 47°40' W 003°26'1 0.5
2014-Oct-16 20:33N 47°40' W 003°26'1 0.7
2014-Oct-16 19:33N 47°40' W 003°27'2 1.5
2014-Oct-16 18:33N 47°41' W 003°29'7 0.5
2014-Oct-16 05:11N 47°35' W 003°23'4 6.7
2014-Oct-16 04:33N 47°39' W 003°23'5 4.6
2014-Oct-16 03:33N 47°44' W 003°22'0 0.0
2014-Oct-16 02:33N 47°44' W 003°22'3 3.0
2014-Oct-16 01:34N 47°41' W 003°24'7 0.3
2014-Oct-15 04:27N 47°34' W 003°23'8 8.7
2014-Oct-15 03:33N 47°42' W 003°22'2 1.7
2014-Oct-15 02:33N 47°44' W 003°22'0 0.0
2014-Oct-15 01:33N 47°44' W 003°22'0 0.0
2014-Oct-15 00:33N 47°44' W 003°22'0 0.0
2014-Oct-14 23:33N 47°44' W 003°22'0 0.0
2014-Oct-14 22:33N 47°44' W 003°22'0 0.0
2014-Oct-14 21:33N 47°44' W 003°22'0 0.0
2014-Oct-14 20:33N 47°44' W 003°22'0 0.1
2014-Oct-14 19:33N 47°44' W 003°22'0 0.0
2014-Oct-14 18:33N 47°44' W 003°22'0 0.0
2014-Oct-14 17:33N 47°44' W 003°22'0 0.0
2014-Oct-14 16:33N 47°44' W 003°22'1 0.6
2014-Oct-14 15:33N 47°43' W 003°22'5 4.7
2014-Oct-14 14:33N 47°38' W 003°22'4 0.5
2014-Oct-14 06:31N 47°40' W 003°27'5 5.0
2014-Oct-14 05:33N 47°44' W 003°22'0 0.0
2014-Oct-14 04:33N 47°44' W 003°22'0 0.0
2014-Oct-14 03:33N 47°44' W 003°22'0 0.0
2014-Oct-14 02:33N 47°44' W 003°22'0 0.0
2014-Oct-14 01:33N 47°44' W 003°22'0 0.0
2014-Oct-14 00:33N 47°44' W 003°22'0 0.0
2014-Oct-13 23:33N 47°44' W 003°22'0 0.0
2014-Oct-13 22:33N 47°44' W 003°22'0 0.0
2014-Oct-13 21:33N 47°44' W 003°22'4 4.4
2014-Oct-13 20:33N 47°41' W 003°26'5 4.3
2014-Oct-13 19:23N 47°39' W 003°33'0 0.4
2014-Oct-13 18:33N 47°39' W 003°34'5 1.1
2014-Oct-13 13:29N 47°33' W 003°33'2 0.7
2014-Oct-13 10:22N 47°35' W 003°32'0 0.2
2014-Oct-13 09:33N 47°35' W 003°32'7 2.3
2014-Oct-13 06:33N 47°38' W 003°23'6 6.0
2014-Oct-13 05:33N 47°44' W 003°22'0 0.0
2014-Oct-13 04:33N 47°44' W 003°22'0 0.0
2014-Oct-13 03:33N 47°44' W 003°22'0 0.0
2014-Oct-13 02:33N 47°44' W 003°22'0 0.0
2014-Oct-13 01:33N 47°44' W 003°22'0 0.0
2014-Oct-13 00:33N 47°44' W 003°22'0 0.0
2014-Oct-12 23:33N 47°44' W 003°22'0 0.0
2014-Oct-12 22:33N 47°44' W 003°22'0 0.0
2014-Oct-12 21:33N 47°44' W 003°22'0 0.0
2014-Oct-12 20:33N 47°44' W 003°22'5 5.4
2014-Oct-12 19:33N 47°38' W 003°22'1 0.5
2014-Oct-12 18:33N 47°38' W 003°22'4 4.0
2014-Oct-12 17:30N 47°34' W 003°24'3 0.3
2014-Oct-12 07:33N 47°37' W 003°23'  
Track history (hours):
 
Tides and Currents Weather Stations Pressure Air Temp Water Temp Dewpoint Dewpoint Depression Visibility Wind Speed Wind Dir Waves Ship Positions

F/V Adeline Stephen

Last reported at 2014-Oct-20 21:08 UTC. Time now 2014-Oct-23 04:38 UTC.
Position N 47°44' W 003°22'.

Length 18 m.

Type: Fishing. MMSI: 228929000.

Date/timePositionNaut miles runAvg speedWind from/ knotsBaromVisibWave heightAir tempDewpointWater temp
2014-Oct-20 21:08N 47°44' W 003°22'0 0.0
2014-Oct-20 20:33N 47°44' W 003°22'2 2.3
2014-Oct-20 19:33N 47°42' W 003°23'18 9.2
2014-Oct-20 17:33N 47°39' W 003°50'9 8.8
2014-Oct-20 16:33N 47°39' W 004°03'21 0.6
2014-Oct-19 07:33N 47°40' W 003°32'8 7.9
2014-Oct-19 06:33N 47°44' W 003°22'  
2014-Oct-17 01:33N 47°44' W 003°22'0 0.0
2014-Oct-17 00:33N 47°44' W 003°22'0 0.0
2014-Oct-16 23:33N 47°44' W 003°22'5 4.9
2014-Oct-16 22:33N 47°40' W 003°26'1 0.8
2014-Oct-16 21:33N 47°40' W 003°26'1 0.5
2014-Oct-16 20:33N 47°40' W 003°26'1 0.7
2014-Oct-16 19:33N 47°40' W 003°27'2 1.5
2014-Oct-16 18:33N 47°41' W 003°29'7 0.5
2014-Oct-16 05:11N 47°35' W 003°23'4 6.7
2014-Oct-16 04:33N 47°39' W 003°23'5 4.6
2014-Oct-16 03:33N 47°44' W 003°22'0 0.0
2014-Oct-16 02:33N 47°44' W 003°22'3 3.0
2014-Oct-16 01:34N 47°41' W 003°24'7 0.3
2014-Oct-15 04:27N 47°34' W 003°23'8 8.7
2014-Oct-15 03:33N 47°42' W 003°22'2 1.7
2014-Oct-15 02:33N 47°44' W 003°22'0 0.0
2014-Oct-15 01:33N 47°44' W 003°22'0 0.0
2014-Oct-15 00:33N 47°44' W 003°22'0 0.0
2014-Oct-14 23:33N 47°44' W 003°22'0 0.0
2014-Oct-14 22:33N 47°44' W 003°22'0 0.0
2014-Oct-14 21:33N 47°44' W 003°22'0 0.0
2014-Oct-14 20:33N 47°44' W 003°22'0 0.1
2014-Oct-14 19:33N 47°44' W 003°22'0 0.0
2014-Oct-14 18:33N 47°44' W 003°22'0 0.0
2014-Oct-14 17:33N 47°44' W 003°22'0 0.0
2014-Oct-14 16:33N 47°44' W 003°22'1 0.6
2014-Oct-14 15:33N 47°43' W 003°22'5 4.7
2014-Oct-14 14:33N 47°38' W 003°22'4 0.5
2014-Oct-14 06:31N 47°40' W 003°27'5 5.0
2014-Oct-14 05:33N 47°44' W 003°22'0 0.0
2014-Oct-14 04:33N 47°44' W 003°22'0 0.0
2014-Oct-14 03:33N 47°44' W 003°22'0 0.0
2014-Oct-14 02:33N 47°44' W 003°22'0 0.0
2014-Oct-14 01:33N 47°44' W 003°22'0 0.0
2014-Oct-14 00:33N 47°44' W 003°22'0 0.0
2014-Oct-13 23:33N 47°44' W 003°22'0 0.0
2014-Oct-13 22:33N 47°44' W 003°22'0 0.0
2014-Oct-13 21:33N 47°44' W 003°22'4 4.4
2014-Oct-13 20:33N 47°41' W 003°26'5 4.3
2014-Oct-13 19:23N 47°39' W 003°33'0 0.4
2014-Oct-13 18:33N 47°39' W 003°34'5 1.1
2014-Oct-13 13:29N 47°33' W 003°33'2 0.7
2014-Oct-13 10:22N 47°35' W 003°32'0 0.2
2014-Oct-13 09:33N 47°35' W 003°32'7 2.3
2014-Oct-13 06:33N 47°38' W 003°23'6 6.0
2014-Oct-13 05:33N 47°44' W 003°22'0 0.0
2014-Oct-13 04:33N 47°44' W 003°22'0 0.0
2014-Oct-13 03:33N 47°44' W 003°22'0 0.0
2014-Oct-13 02:33N 47°44' W 003°22'0 0.0
2014-Oct-13 01:33N 47°44' W 003°22'0 0.0
2014-Oct-13 00:33N 47°44' W 003°22'0 0.0
2014-Oct-12 23:33N 47°44' W 003°22'0 0.0
2014-Oct-12 22:33N 47°44' W 003°22'0 0.0
2014-Oct-12 21:33N 47°44' W 003°22'0 0.0
2014-Oct-12 20:33N 47°44' W 003°22'5 5.4
2014-Oct-12 19:33N 47°38' W 003°22'1 0.5
2014-Oct-12 18:33N 47°38' W 003°22'4 4.0
2014-Oct-12 17:30N 47°34' W 003°24'3 0.3
2014-Oct-12 07:33N 47°37' W 003°23'  

Dump ship's entire track history